map of DAD home
Great Circle Mapper logo
DAD - Airport
Location
City:  Da Nang, Vietnam
Name:Da Nang International Airport
ICAO / IATA:VVDN / DAD

Details
Type:Airport (Aerodrome, Airfield)
Use:Public/Civil, Military, International (customs port of entry)
Latitude:1602'38"N (16.043917)
Longitude:10811'58"E (108.199370)
Datum:WGS 1984
Elevation:33 ft (10 m)
Runways:2
Longest:10000 × 148 ft (3048 × 45 m), paved

Time
Time Zone:UTC+7
Local Time:

Weather
METAR:VVDN 181330Z 00000KT 8000 FEW015 BKN300 27/24 Q1010 NOSIG
TAF:VVDN 181100Z 1812/1912 21004KT 8000 FEW015 SCT050
BECMG 1901/1902 12010KT
TEMPO 1909/1912 FEW013 FEW015CB SCT050

Related Locations
Nearby:
Farthest:SPVR: 12447 mi / 20031 km
Vitor, PE

Find:

   beyond  
but within

Other Information
Maps:
NOTAMs:
Links:
Sources:

  
flag of Vietnam   

Airport Diagram

Airport diagram for DAD

Airport diagram (OBSOLETE) from NGA

Sectional Chart

Flight Planning
at skyvector.com

Satellite Image

Google Maps Satellite View

 

Copyright © 2004-2014 Karl L. Swartz. All rights reserved.
The Great Circle Mapper name and logo are trademarks of the Great Circle Mapper.
All other trademarks mentioned herein belong to their respective owners.
Please see credits for attibutions and further copyright information.

  Follow gcmap on Facebook Follow gcmap on Twitter

hCard Microformat

Geo Microformat